sensor_id;sensor_type;location;lat;lon;timestamp;pressure;altitude;pressure_sealevel;temperature;humidity
42385;BME280;28042;43.986;22.860;2022-12-22T00:01:12;101787.94;;;-2.35;100.00
42385;BME280;28042;43.986;22.860;2022-12-22T00:03:56;101778.94;;;-2.48;100.00
42385;BME280;28042;43.986;22.860;2022-12-22T00:06:40;101785.22;;;-2.49;100.00
42385;BME280;28042;43.986;22.860;2022-12-22T00:09:24;101780.56;;;-2.46;100.00
42385;BME280;28042;43.986;22.860;2022-12-22T00:12:09;101787.94;;;-2.35;100.00
42385;BME280;28042;43.986;22.860;2022-12-22T00:14:53;101777.78;;;-2.29;100.00
42385;BME280;28042;43.986;22.860;2022-12-22T00:17:37;101785.88;;;-2.30;100.00
42385;BME280;28042;43.986;22.860;2022-12-22T00:20:21;101783.47;;;-2.35;100.00
42385;BME280;28042;43.986;22.860;2022-12-22T00:23:07;101770.03;;;-2.33;100.00
42385;BME280;28042;43.986;22.860;2022-12-22T00:25:51;101771.56;;;-2.29;100.00
42385;BME280;28042;43.986;22.860;2022-12-22T00:28:35;101765.69;;;-2.20;100.00
42385;BME280;28042;43.986;22.860;2022-12-22T00:31:19;101763.97;;;-2.21;100.00
42385;BME280;28042;43.986;22.860;2022-12-22T00:34:03;101755.00;;;-2.20;100.00
42385;BME280;28042;43.986;22.860;2022-12-22T00:36:47;101753.56;;;-2.25;100.00
42385;BME280;28042;43.986;22.860;2022-12-22T00:39:31;101756.03;;;-2.22;100.00
42385;BME280;28042;43.986;22.860;2022-12-22T00:42:15;101760.53;;;-2.23;100.00
42385;BME280;28042;43.986;22.860;2022-12-22T00:44:59;101751.22;;;-2.16;100.00
42385;BME280;28042;43.986;22.860;2022-12-22T00:47:43;101757.41;;;-2.15;100.00
42385;BME280;28042;43.986;22.860;2022-12-22T00:50:29;101744.22;;;-2.18;100.00
42385;BME280;28042;43.986;22.860;2022-12-22T00:53:14;101746.22;;;-2.22;100.00
42385;BME280;28042;43.986;22.860;2022-12-22T00:55:58;101742.69;;;-2.22;100.00
42385;BME280;28042;43.986;22.860;2022-12-22T00:58:42;101744.53;;;-2.39;100.00
42385;BME280;28042;43.986;22.860;2022-12-22T01:01:26;101742.25;;;-2.76;100.00
42385;BME280;28042;43.986;22.860;2022-12-22T01:04:10;101736.28;;;-2.66;100.00
42385;BME280;28042;43.986;22.860;2022-12-22T01:06:53;101728.72;;;-2.58;100.00
42385;BME280;28042;43.986;22.860;2022-12-22T01:09:37;101727.84;;;-2.74;100.00
42385;BME280;28042;43.986;22.860;2022-12-22T01:12:23;101732.47;;;-2.62;100.00
42385;BME280;28042;43.986;22.860;2022-12-22T01:15:17;101719.72;;;-2.41;100.00
42385;BME280;28042;43.986;22.860;2022-12-22T01:18:02;101729.34;;;-2.38;100.00
42385;BME280;28042;43.986;22.860;2022-12-22T01:20:46;101718.88;;;-2.57;100.00
42385;BME280;28042;43.986;22.860;2022-12-22T01:23:30;101728.41;;;-2.53;100.00
42385;BME280;28042;43.986;22.860;2022-12-22T01:26:14;101718.69;;;-2.54;100.00
42385;BME280;28042;43.986;22.860;2022-12-22T01:28:58;101716.13;;;-2.56;100.00
42385;BME280;28042;43.986;22.860;2022-12-22T01:31:41;101718.16;;;-2.45;100.00
42385;BME280;28042;43.986;22.860;2022-12-22T01:34:25;101710.97;;;-2.59;100.00
42385;BME280;28042;43.986;22.860;2022-12-22T01:37:09;101718.91;;;-2.73;100.00
42385;BME280;28042;43.986;22.860;2022-12-22T01:39:53;101716.94;;;-2.69;100.00
42385;BME280;28042;43.986;22.860;2022-12-22T01:42:37;101704.97;;;-2.78;100.00
42385;BME280;28042;43.986;22.860;2022-12-22T01:48:09;101707.34;;;-3.05;100.00
42385;BME280;28042;43.986;22.860;2022-12-22T01:50:53;101713.56;;;-3.04;100.00
42385;BME280;28042;43.986;22.860;2022-12-22T01:53:37;101717.25;;;-3.07;100.00
42385;BME280;28042;43.986;22.860;2022-12-22T01:56:21;101717.09;;;-3.20;100.00
42385;BME280;28042;43.986;22.860;2022-12-22T01:59:05;101715.44;;;-3.38;100.00
42385;BME280;28042;43.986;22.860;2022-12-22T02:01:49;101712.69;;;-3.36;100.00
42385;BME280;28042;43.986;22.860;2022-12-22T02:04:35;101708.34;;;-3.39;100.00
42385;BME280;28042;43.986;22.860;2022-12-22T02:13:17;101694.59;;;-3.47;100.00
42385;BME280;28042;43.986;22.860;2022-12-22T02:16:07;101697.69;;;-3.39;100.00
42385;BME280;28042;43.986;22.860;2022-12-22T02:18:55;101693.59;;;-3.29;100.00
42385;BME280;28042;43.986;22.860;2022-12-22T02:24:40;101677.22;;;-3.23;100.00
42385;BME280;28042;43.986;22.860;2022-12-22T02:27:26;101675.34;;;-3.21;100.00
42385;BME280;28042;43.986;22.860;2022-12-22T02:30:11;101672.75;;;-3.22;100.00
42385;BME280;28042;43.986;22.860;2022-12-22T02:32:55;101678.78;;;-3.19;100.00
42385;BME280;28042;43.986;22.860;2022-12-22T02:35:43;101670.44;;;-3.13;100.00
42385;BME280;28042;43.986;22.860;2022-12-22T02:52:55;101660.97;;;-3.02;100.00
42385;BME280;28042;43.986;22.860;2022-12-22T02:55:40;101666.56;;;-3.07;100.00
42385;BME280;28042;43.986;22.860;2022-12-22T02:58:24;101662.06;;;-3.22;100.00
42385;BME280;28042;43.986;22.860;2022-12-22T03:01:08;101660.22;;;-3.20;100.00
42385;BME280;28042;43.986;22.860;2022-12-22T03:03:53;101663.97;;;-3.24;100.00
42385;BME280;28042;43.986;22.860;2022-12-22T03:06:37;101655.03;;;-3.23;100.00
42385;BME280;28042;43.986;22.860;2022-12-22T03:09:21;101661.22;;;-3.23;100.00
42385;BME280;28042;43.986;22.860;2022-12-22T03:12:04;101652.78;;;-3.15;100.00
42385;BME280;28042;43.986;22.860;2022-12-22T03:14:48;101657.44;;;-3.19;100.00
42385;BME280;28042;43.986;22.860;2022-12-22T03:17:32;101648.16;;;-3.11;100.00
42385;BME280;28042;43.986;22.860;2022-12-22T03:20:16;101653.41;;;-3.10;100.00
42385;BME280;28042;43.986;22.860;2022-12-22T03:23:04;101651.25;;;-3.03;100.00
42385;BME280;28042;43.986;22.860;2022-12-22T03:25:48;101648.91;;;-2.94;100.00
42385;BME280;28042;43.986;22.860;2022-12-22T03:28:20;101639.00;;;-2.92;100.00
42385;BME280;28042;43.986;22.860;2022-12-22T03:30:51;101644.25;;;-2.90;100.00
42385;BME280;28042;43.986;22.860;2022-12-22T03:33:16;101634.34;;;-2.88;100.00
42385;BME280;28042;43.986;22.860;2022-12-22T03:35:42;101631.84;;;-2.91;100.00
42385;BME280;28042;43.986;22.860;2022-12-22T03:38:08;101637.09;;;-2.90;100.00
42385;BME280;28042;43.986;22.860;2022-12-22T03:40:33;101636.06;;;-2.87;100.00
42385;BME280;28042;43.986;22.860;2022-12-22T03:42:58;101643.56;;;-2.78;100.00
42385;BME280;28042;43.986;22.860;2022-12-22T03:45:42;101644.31;;;-2.76;100.00
42385;BME280;28042;43.986;22.860;2022-12-22T03:48:26;101644.66;;;-2.82;100.00
42385;BME280;28042;43.986;22.860;2022-12-22T03:50:51;101636.25;;;-2.90;100.00
42385;BME280;28042;43.986;22.860;2022-12-22T03:53:17;101635.28;;;-2.89;100.00
42385;BME280;28042;43.986;22.860;2022-12-22T03:55:42;101630.81;;;-3.04;100.00
42385;BME280;28042;43.986;22.860;2022-12-22T03:58:07;101631.44;;;-3.15;100.00
42385;BME280;28042;43.986;22.860;2022-12-22T04:00:32;101639.44;;;-3.15;100.00
42385;BME280;28042;43.986;22.860;2022-12-22T04:02:58;101627.22;;;-3.03;100.00
42385;BME280;28042;43.986;22.860;2022-12-22T04:05:23;101633.69;;;-3.07;100.00
42385;BME280;28042;43.986;22.860;2022-12-22T04:07:49;101638.06;;;-3.06;100.00
42385;BME280;28042;43.986;22.860;2022-12-22T04:10:14;101628.69;;;-3.14;100.00
42385;BME280;28042;43.986;22.860;2022-12-22T04:12:58;101635.25;;;-3.19;100.00
42385;BME280;28042;43.986;22.860;2022-12-22T04:15:28;101635.34;;;-3.21;100.00
42385;BME280;28042;43.986;22.860;2022-12-22T04:17:54;101630.59;;;-3.16;100.00
42385;BME280;28042;43.986;22.860;2022-12-22T04:20:19;101630.44;;;-3.13;100.00
42385;BME280;28042;43.986;22.860;2022-12-22T04:22:45;101630.44;;;-3.13;100.00
42385;BME280;28042;43.986;22.860;2022-12-22T04:25:11;101633.50;;;-3.04;100.00
42385;BME280;28042;43.986;22.860;2022-12-22T04:27:37;101638.34;;;-2.95;100.00
42385;BME280;28042;43.986;22.860;2022-12-22T04:30:03;101630.31;;;-2.95;100.00
42385;BME280;28042;43.986;22.860;2022-12-22T04:32:28;101628.16;;;-3.04;100.00
42385;BME280;28042;43.986;22.860;2022-12-22T04:34:54;101628.69;;;-3.14;100.00
42385;BME280;28042;43.986;22.860;2022-12-22T04:37:19;101624.72;;;-3.06;100.00
42385;BME280;28042;43.986;22.860;2022-12-22T04:39:44;101632.16;;;-3.11;100.00
42385;BME280;28042;43.986;22.860;2022-12-22T04:42:10;101630.59;;;-3.16;100.00
42385;BME280;28042;43.986;22.860;2022-12-22T04:44:35;101623.34;;;-3.14;100.00
42385;BME280;28042;43.986;22.860;2022-12-22T04:47:00;101628.69;;;-3.14;100.00
42385;BME280;28042;43.986;22.860;2022-12-22T04:49:26;101628.16;;;-3.04;100.00
42385;BME280;28042;43.986;22.860;2022-12-22T04:51:51;101619.22;;;-3.03;100.00
42385;BME280;28042;43.986;22.860;2022-12-22T04:54:16;101620.22;;;-2.90;100.00
42385;BME280;28042;43.986;22.860;2022-12-22T04:56:42;101617.03;;;-2.81;100.00
42385;BME280;28042;43.986;22.860;2022-12-22T04:59:07;101619.69;;;-2.81;100.00
42385;BME280;28042;43.986;22.860;2022-12-22T05:01:32;101614.47;;;-2.98;100.00
42385;BME280;28042;43.986;22.860;2022-12-22T05:03:57;101619.72;;;-2.97;100.00
42385;BME280;28042;43.986;22.860;2022-12-22T05:06:23;101611.13;;;-3.02;100.00
42385;BME280;28042;43.986;22.860;2022-12-22T05:08:48;101605.94;;;-3.05;100.00
42385;BME280;28042;43.986;22.860;2022-12-22T05:11:13;101604.91;;;-2.87;100.00
42385;BME280;28042;43.986;22.860;2022-12-22T05:13:39;101606.63;;;-2.86;100.00
42385;BME280;28042;43.986;22.860;2022-12-22T05:16:05;101601.13;;;-2.98;100.00
42385;BME280;28042;43.986;22.860;2022-12-22T05:18:31;101605.28;;;-3.08;100.00
42385;BME280;28042;43.986;22.860;2022-12-22T05:20:56;101602.78;;;-3.11;100.00
42385;BME280;28042;43.986;22.860;2022-12-22T05:23:22;101603.56;;;-3.09;100.00
42385;BME280;28042;43.986;22.860;2022-12-22T05:25:47;101610.63;;;-3.08;100.00
42385;BME280;28042;43.986;22.860;2022-12-22T05:28:12;101609.09;;;-3.13;100.00
42385;BME280;28042;43.986;22.860;2022-12-22T05:30:39;101610.81;;;-3.11;100.00
42385;BME280;28042;43.986;22.860;2022-12-22T05:33:04;101612.00;;;-3.17;100.00
42385;BME280;28042;43.986;22.860;2022-12-22T05:35:30;101630.09;;;-3.38;100.00
42385;BME280;28042;43.986;22.860;2022-12-22T05:37:55;101630.66;;;-3.33;100.00
42385;BME280;28042;43.986;22.860;2022-12-22T05:40:20;101631.63;;;-3.34;100.00
42385;BME280;28042;43.986;22.860;2022-12-22T05:42:46;101628.09;;;-3.34;100.00
42385;BME280;28042;43.986;22.860;2022-12-22T05:45:15;101631.63;;;-3.34;100.00
42385;BME280;28042;43.986;22.860;2022-12-22T05:47:41;101626.81;;;-3.43;100.00
42385;BME280;28042;43.986;22.860;2022-12-22T05:50:07;101629.81;;;-3.49;100.00
42385;BME280;28042;43.986;22.860;2022-12-22T05:52:33;101633.28;;;-3.47;100.00
42385;BME280;28042;43.986;22.860;2022-12-22T05:54:58;101637.28;;;-3.40;100.00
42385;BME280;28042;43.986;22.860;2022-12-22T05:57:23;101630.75;;;-3.34;100.00
42385;BME280;28042;43.986;22.860;2022-12-22T05:59:49;101633.88;;;-3.26;100.00
42385;BME280;28042;43.986;22.860;2022-12-22T06:02:14;101632.81;;;-3.24;100.00
42385;BME280;28042;43.986;22.860;2022-12-22T06:04:40;101636.09;;;-3.19;100.00
42385;BME280;28042;43.986;22.860;2022-12-22T06:07:05;101632.31;;;-3.15;100.00
42385;BME280;28042;43.986;22.860;2022-12-22T06:09:30;101638.34;;;-3.11;100.00
42385;BME280;28042;43.986;22.860;2022-12-22T06:11:56;101650.03;;;-3.14;100.00
42385;BME280;28042;43.986;22.860;2022-12-22T06:14:21;101648.50;;;-3.18;100.00
42385;BME280;28042;43.986;22.860;2022-12-22T06:16:46;101643.84;;;-3.14;100.00
42385;BME280;28042;43.986;22.860;2022-12-22T06:19:12;101644.25;;;-3.06;100.00
42385;BME280;28042;43.986;22.860;2022-12-22T06:21:37;101648.66;;;-3.05;100.00
42385;BME280;28042;43.986;22.860;2022-12-22T06:24:02;101645.31;;;-3.08;100.00
42385;BME280;28042;43.986;22.860;2022-12-22T06:26:29;101653.31;;;-3.08;100.00
42385;BME280;28042;43.986;22.860;2022-12-22T06:28:54;101656.94;;;-3.09;100.00
42385;BME280;28042;43.986;22.860;2022-12-22T06:31:19;101657.69;;;-3.07;100.00
42385;BME280;28042;43.986;22.860;2022-12-22T06:33:45;101665.38;;;-3.01;100.00
42385;BME280;28042;43.986;22.860;2022-12-22T06:36:10;101657.00;;;-2.95;100.00
42385;BME280;28042;43.986;22.860;2022-12-22T06:38:35;101651.94;;;-3.00;100.00
42385;BME280;28042;43.986;22.860;2022-12-22T06:41:01;101648.13;;;-2.96;100.00
42385;BME280;28042;43.986;22.860;2022-12-22T06:43:26;101644.66;;;-2.82;100.00
42385;BME280;28042;43.986;22.860;2022-12-22T06:45:51;101653.19;;;-2.75;100.00
42385;BME280;28042;43.986;22.860;2022-12-22T06:48:17;101645.34;;;-2.78;100.00
42385;BME280;28042;43.986;22.860;2022-12-22T06:50:42;101650.06;;;-2.68;100.00
42385;BME280;28042;43.986;22.860;2022-12-22T06:53:08;101650.41;;;-2.58;100.00
42385;BME280;28042;43.986;22.860;2022-12-22T06:55:34;101649.03;;;-2.65;100.00
42385;BME280;28042;43.986;22.860;2022-12-22T06:57:59;101645.72;;;-2.54;100.00
42385;BME280;28042;43.986;22.860;2022-12-22T07:00:26;101642.69;;;-2.48;100.00
42385;BME280;28042;43.986;22.860;2022-12-22T07:02:51;101640.97;;;-2.49;100.00
42385;BME280;28042;43.986;22.860;2022-12-22T07:05:16;101640.97;;;-2.49;100.00
42385;BME280;28042;43.986;22.860;2022-12-22T07:07:42;101643.19;;;-2.42;100.00
42385;BME280;28042;43.986;22.860;2022-12-22T07:10:07;101645.22;;;-2.31;100.00
42385;BME280;28042;43.986;22.860;2022-12-22T07:12:33;101635.69;;;-2.21;100.00
42385;BME280;28042;43.986;22.860;2022-12-22T07:14:58;101641.63;;;-2.16;100.00
42385;BME280;28042;43.986;22.860;2022-12-22T07:17:24;101646.19;;;-2.18;100.00
42385;BME280;28042;43.986;22.860;2022-12-22T07:19:49;101635.31;;;-2.29;100.00
42385;BME280;28042;43.986;22.860;2022-12-22T07:22:14;101636.63;;;-2.36;100.00
42385;BME280;28042;43.986;22.860;2022-12-22T07:24:40;101637.59;;;-2.23;100.00
42385;BME280;28042;43.986;22.860;2022-12-22T07:27:05;101632.06;;;-2.20;100.00
42385;BME280;28042;43.986;22.860;2022-12-22T07:29:30;101643.75;;;-2.07;100.00
42385;BME280;28042;43.986;22.860;2022-12-22T07:31:56;101649.66;;;-2.16;100.00
42385;BME280;28042;43.986;22.860;2022-12-22T07:34:21;101643.19;;;-1.97;100.00
42385;BME280;28042;43.986;22.860;2022-12-22T07:36:46;101644.59;;;-2.06;100.00
42385;BME280;28042;43.986;22.860;2022-12-22T07:39:12;101626.56;;;-1.88;100.00
42385;BME280;28042;43.986;22.860;2022-12-22T07:41:37;101645.38;;;-1.90;100.00
42385;BME280;28042;43.986;22.860;2022-12-22T07:44:21;101644.69;;;-1.93;100.00
42385;BME280;28042;43.986;22.860;2022-12-22T07:46:47;101631.16;;;-1.76;100.00
42385;BME280;28042;43.986;22.860;2022-12-22T07:49:12;101632.97;;;-1.62;100.00
42385;BME280;28042;43.986;22.860;2022-12-22T07:51:56;101618.91;;;-1.52;100.00
42385;BME280;28042;43.986;22.860;2022-12-22T07:54:21;101628.28;;;-1.45;100.00
42385;BME280;28042;43.986;22.860;2022-12-22T07:56:47;101632.66;;;-1.44;100.00
42385;BME280;28042;43.986;22.860;2022-12-22T07:59:12;101638.06;;;-1.31;100.00
42385;BME280;28042;43.986;22.860;2022-12-22T08:01:38;101629.56;;;-1.23;100.00
42385;BME280;28042;43.986;22.860;2022-12-22T08:04:05;101622.50;;;-1.24;100.00
42385;BME280;28042;43.986;22.860;2022-12-22T08:06:32;101615.91;;;-1.33;100.00
42385;BME280;28042;43.986;22.860;2022-12-22T08:08:58;101615.53;;;-1.27;100.00
42385;BME280;28042;43.986;22.860;2022-12-22T08:11:23;101610.28;;;-1.43;100.00
42385;BME280;28042;43.986;22.860;2022-12-22T08:13:48;101606.66;;;-1.42;100.00
42385;BME280;28042;43.986;22.860;2022-12-22T08:16:14;101606.44;;;-1.24;100.00
42385;BME280;28042;43.986;22.860;2022-12-22T08:18:39;101611.41;;;-1.32;100.00
42385;BME280;28042;43.986;22.860;2022-12-22T08:21:05;101608.94;;;-1.35;100.00
42385;BME280;28042;43.986;22.860;2022-12-22T08:23:31;101598.72;;;-1.29;100.00
42385;BME280;28042;43.986;22.860;2022-12-22T08:28:47;101601.34;;;-1.15;100.00
42385;BME280;28042;43.986;22.860;2022-12-22T08:31:14;101613.44;;;-1.36;100.00
42385;BME280;28042;43.986;22.860;2022-12-22T08:33:39;101610.72;;;-1.22;100.00
42385;BME280;28042;43.986;22.860;2022-12-22T08:36:05;101607.09;;;-1.21;100.00
42385;BME280;28042;43.986;22.860;2022-12-22T08:38:31;101596.28;;;-1.19;100.00
42385;BME280;28042;43.986;22.860;2022-12-22T08:40:56;101604.91;;;-1.28;100.00
42385;BME280;28042;43.986;22.860;2022-12-22T08:43:22;101612.59;;;-1.36;100.00
42385;BME280;28042;43.986;22.860;2022-12-22T08:45:49;101615.22;;;-1.22;100.00
42385;BME280;28042;43.986;22.860;2022-12-22T08:48:14;101614.97;;;-1.05;100.00
42385;BME280;28042;43.986;22.860;2022-12-22T08:50:39;101602.72;;;-0.95;100.00
42385;BME280;28042;43.986;22.860;2022-12-22T08:53:06;101604.22;;;-0.91;100.00
42385;BME280;28042;43.986;22.860;2022-12-22T08:55:31;101604.25;;;-1.05;100.00
42385;BME280;28042;43.986;22.860;2022-12-22T08:57:57;101602.91;;;-0.98;100.00
42385;BME280;28042;43.986;22.860;2022-12-22T09:00:22;101603.97;;;-1.00;100.00
42385;BME280;28042;43.986;22.860;2022-12-22T09:02:47;101611.25;;;-1.02;100.00
42385;BME280;28042;43.986;22.860;2022-12-22T09:05:13;101595.78;;;-1.11;100.00
42385;BME280;28042;43.986;22.860;2022-12-22T09:07:38;101587.59;;;-0.96;100.00
42385;BME280;28042;43.986;22.860;2022-12-22T09:10:05;101590.66;;;-0.75;100.00
42385;BME280;28042;43.986;22.860;2022-12-22T09:12:31;101588.22;;;-0.65;100.00
42385;BME280;28042;43.986;22.860;2022-12-22T09:14:57;101589.81;;;-0.63;100.00
42385;BME280;28042;43.986;22.860;2022-12-22T09:17:22;101588.44;;;-0.68;100.00
42385;BME280;28042;43.986;22.860;2022-12-22T09:19:48;101585.13;;;-0.59;100.00
42385;BME280;28042;43.986;22.860;2022-12-22T09:22:13;101580.94;;;-0.63;100.00
42385;BME280;28042;43.986;22.860;2022-12-22T09:24:38;101582.13;;;-0.54;100.00
42385;BME280;28042;43.986;22.860;2022-12-22T09:27:04;101578.81;;;-0.58;100.00
42385;BME280;28042;43.986;22.860;2022-12-22T09:29:30;101572.47;;;-0.57;100.00
42385;BME280;28042;43.986;22.860;2022-12-22T09:31:56;101576.66;;;-0.53;100.00
42385;BME280;28042;43.986;22.860;2022-12-22T09:34:21;101574.81;;;-0.65;100.00
42385;BME280;28042;43.986;22.860;2022-12-22T09:36:46;101573.44;;;-0.58;100.00
42385;BME280;28042;43.986;22.860;2022-12-22T09:39:12;101571.53;;;-0.56;100.00
42385;BME280;28042;43.986;22.860;2022-12-22T09:44:21;101567.47;;;-0.23;100.00
42385;BME280;28042;43.986;22.860;2022-12-22T09:46:47;101558.06;;;-0.16;100.00
42385;BME280;28042;43.986;22.860;2022-12-22T09:49:14;101553.94;;;-0.09;100.00
42385;BME280;28042;43.986;22.860;2022-12-22T09:51:42;101555.03;;;0.01;100.00
42385;BME280;28042;43.986;22.860;2022-12-22T09:54:08;101557.81;;;-0.13;100.00
42385;BME280;28042;43.986;22.860;2022-12-22T09:56:34;101559.13;;;-0.32;100.00
42385;BME280;28042;43.986;22.860;2022-12-22T09:59:00;101551.81;;;-0.42;100.00
42385;BME280;28042;43.986;22.860;2022-12-22T10:01:34;101558.13;;;-0.56;100.00
42385;BME280;28042;43.986;22.860;2022-12-22T10:07:00;101549.66;;;-0.50;100.00
42385;BME280;28042;43.986;22.860;2022-12-22T10:09:29;101546.88;;;-0.48;100.00
42385;BME280;28042;43.986;22.860;2022-12-22T10:11:56;101539.38;;;-0.56;100.00
42385;BME280;28042;43.986;22.860;2022-12-22T10:14:26;101534.88;;;-0.68;100.00
42385;BME280;28042;43.986;22.860;2022-12-22T10:19:39;101526.50;;;-0.76;100.00
42385;BME280;28042;43.986;22.860;2022-12-22T10:22:18;101525.00;;;-0.68;100.00
42385;BME280;28042;43.986;22.860;2022-12-22T10:24:44;101520.50;;;-0.67;100.00
42385;BME280;28042;43.986;22.860;2022-12-22T10:27:09;101519.09;;;-0.73;100.00
42385;BME280;28042;43.986;22.860;2022-12-22T10:29:35;101506.44;;;-0.83;100.00
42385;BME280;28042;43.986;22.860;2022-12-22T10:32:10;101503.13;;;-0.74;100.00
42385;BME280;28042;43.986;22.860;2022-12-22T10:34:35;101502.78;;;-0.70;100.00
42385;BME280;28042;43.986;22.860;2022-12-22T10:37:03;101503.38;;;-0.52;100.00
42385;BME280;28042;43.986;22.860;2022-12-22T10:39:30;101500.16;;;-0.32;100.00
42385;BME280;28042;43.986;22.860;2022-12-22T10:42:00;101495.41;;;-0.15;100.00
42385;BME280;28042;43.986;22.860;2022-12-22T10:44:27;101489.47;;;0.05;100.00
42385;BME280;28042;43.986;22.860;2022-12-22T10:46:57;101486.34;;;0.11;100.00
42385;BME280;28042;43.986;22.860;2022-12-22T10:51:51;101482.09;;;0.33;100.00
42385;BME280;28042;43.986;22.860;2022-12-22T10:54:31;101476.81;;;0.44;100.00
42385;BME280;28042;43.986;22.860;2022-12-22T10:59:25;101475.84;;;0.45;100.00
42385;BME280;28042;43.986;22.860;2022-12-22T11:01:50;101471.25;;;0.34;100.00
42385;BME280;28042;43.986;22.860;2022-12-22T11:04:25;101463.78;;;0.26;100.00
42385;BME280;28042;43.986;22.860;2022-12-22T11:06:54;101455.22;;;0.09;100.00
42385;BME280;28042;43.986;22.860;2022-12-22T11:09:21;101459.28;;;0.14;100.00
42385;BME280;28042;43.986;22.860;2022-12-22T11:11:47;101455.63;;;0.15;100.00
42385;BME280;28042;43.986;22.860;2022-12-22T11:14:26;101453.44;;;0.33;100.00
42385;BME280;28042;43.986;22.860;2022-12-22T11:17:02;101455.09;;;0.47;100.00
42385;BME280;28042;43.986;22.860;2022-12-22T11:30:13;101443.03;;;0.05;100.00
42385;BME280;28042;43.986;22.860;2022-12-22T11:38:05;101431.88;;;-0.02;100.00
42385;BME280;28042;43.986;22.860;2022-12-22T11:40:43;101426.97;;;-0.08;100.00
42385;BME280;28042;43.986;22.860;2022-12-22T11:51:01;101420.09;;;0.01;100.00
42385;BME280;28042;43.986;22.860;2022-12-22T11:56:01;101409.38;;;-0.12;100.00
42385;BME280;28042;43.986;22.860;2022-12-22T11:58:52;101411.28;;;-0.02;100.00
42385;BME280;28042;43.986;22.860;2022-12-22T12:01:40;101407.69;;;-0.13;100.00
42385;BME280;28042;43.986;22.860;2022-12-22T12:04:23;101405.97;;;-0.14;100.00
42385;BME280;28042;43.986;22.860;2022-12-22T12:16:58;101398.47;;;0.15;100.00
42385;BME280;28042;43.986;22.860;2022-12-22T12:21:59;101390.56;;;0.24;100.00
42385;BME280;28042;43.986;22.860;2022-12-22T12:29:36;101386.34;;;0.57;100.00
42385;BME280;28042;43.986;22.860;2022-12-22T12:34:30;101385.56;;;0.44;100.00
42385;BME280;28042;43.986;22.860;2022-12-22T12:44:44;101383.53;;;0.35;100.00
42385;BME280;28042;43.986;22.860;2022-12-22T12:47:20;101377.28;;;0.23;100.00
42385;BME280;28042;43.986;22.860;2022-12-22T12:49:51;101378.00;;;0.25;100.00
42385;BME280;28042;43.986;22.860;2022-12-22T12:52:16;101377.53;;;0.20;100.00
42385;BME280;28042;43.986;22.860;2022-12-22T12:54:42;101382.03;;;0.19;100.00
42385;BME280;28042;43.986;22.860;2022-12-22T12:57:26;101383.16;;;0.04;100.00
42385;BME280;28042;43.986;22.860;2022-12-22T12:59:53;101372.19;;;0.07;100.00
42385;BME280;28042;43.986;22.860;2022-12-22T13:02:37;101376.56;;;0.21;100.00
42385;BME280;28042;43.986;22.860;2022-12-22T13:10:35;101379.06;;;0.11;100.00
42385;BME280;28042;43.986;22.860;2022-12-22T13:13:01;101373.97;;;0.19;100.00
42385;BME280;28042;43.986;22.860;2022-12-22T13:17:55;101374.75;;;0.33;100.00
42385;BME280;28042;43.986;22.860;2022-12-22T13:20:23;101373.19;;;0.30;100.00
42385;BME280;28042;43.986;22.860;2022-12-22T13:22:50;101373.91;;;0.32;100.00
42385;BME280;28042;43.986;22.860;2022-12-22T13:25:16;101377.44;;;0.33;100.00
42385;BME280;28042;43.986;22.860;2022-12-22T13:27:42;101372.84;;;0.11;100.00
42385;BME280;28042;43.986;22.860;2022-12-22T13:30:11;101368.72;;;-0.06;100.00
42385;BME280;28042;43.986;22.860;2022-12-22T13:32:37;101372.09;;;-0.15;100.00
42385;BME280;28042;43.986;22.860;2022-12-22T13:37:40;101363.19;;;-0.16;100.00
42385;BME280;28042;43.986;22.860;2022-12-22T13:47:51;101362.47;;;-0.31;100.00
42385;BME280;28042;43.986;22.860;2022-12-22T13:50:17;101367.09;;;-0.33;100.00
42385;BME280;28042;43.986;22.860;2022-12-22T13:52:43;101367.00;;;-0.44;100.00
42385;BME280;28042;43.986;22.860;2022-12-22T13:55:11;101374.09;;;-0.43;100.00
42385;BME280;28042;43.986;22.860;2022-12-22T13:57:37;101368.84;;;-0.57;100.00
42385;BME280;28042;43.986;22.860;2022-12-22T14:00:03;101364.47;;;-0.58;100.00
42385;BME280;28042;43.986;22.860;2022-12-22T14:02:30;101362.97;;;-0.49;100.00
42385;BME280;28042;43.986;22.860;2022-12-22T14:05:04;101353.94;;;-0.48;100.00
42385;BME280;28042;43.986;22.860;2022-12-22T14:07:30;101357.59;;;-0.49;100.00
42385;BME280;28042;43.986;22.860;2022-12-22T14:09:55;101365.63;;;-0.62;100.00
42385;BME280;28042;43.986;22.860;2022-12-22T14:12:24;101359.03;;;-0.69;100.00
42385;BME280;28042;43.986;22.860;2022-12-22T14:14:51;101356.56;;;-0.72;100.00
42385;BME280;28042;43.986;22.860;2022-12-22T14:19:56;101367.19;;;-0.83;100.00
42385;BME280;28042;43.986;22.860;2022-12-22T14:22:44;101368.66;;;-0.79;100.00
42385;BME280;28042;43.986;22.860;2022-12-22T14:25:11;101357.31;;;-0.96;100.00
42385;BME280;28042;43.986;22.860;2022-12-22T14:30:04;101351.88;;;-1.20;100.00
42385;BME280;28042;43.986;22.860;2022-12-22T14:32:34;101364.81;;;-1.26;100.00
42385;BME280;28042;43.986;22.860;2022-12-22T14:35:00;101363.84;;;-1.25;100.00
42385;BME280;28042;43.986;22.860;2022-12-22T14:37:25;101362.97;;;-1.13;100.00
42385;BME280;28042;43.986;22.860;2022-12-22T14:39:54;101355.72;;;-1.11;100.00
42385;BME280;28042;43.986;22.860;2022-12-22T14:42:20;101354.09;;;-1.14;100.00
42385;BME280;28042;43.986;22.860;2022-12-22T14:44:45;101362.13;;;-1.26;100.00
42385;BME280;28042;43.986;22.860;2022-12-22T14:49:43;101351.00;;;-1.20;100.00
42385;BME280;28042;43.986;22.860;2022-12-22T14:55:04;101351.00;;;-1.20;100.00